Time;durP1;ratioP1;P1;durP2;ratioP2;P2;SDS_P1;SDS_P2;PMS_P1;PMS_P2;Temp;Humidity;BMP_temperature;BMP_pressure;BME280_temperature;BME280_humidity;BME280_pressure;Samples;Min_cycle;Max_cycle;Signal;HPM_P1;HPM_P2
2023/04/26 00:01:04;;;;;;;3.25;2.40;;;18.30;48.80;;;;;;5078166;28;20222;-80
2023/04/26 00:03:31;;;;;;;2.78;2.30;;;18.40;48.90;;;;;;5077951;28;20635;-80
2023/04/26 00:06:02;;;;;;;2.50;2.30;;;18.40;49.00;;;;;;5078615;28;20557;-80
2023/04/26 00:08:30;;;;;;;2.55;2.35;;;18.30;48.90;;;;;;5077418;28;20201;-80
2023/04/26 00:10:57;;;;;;;3.40;2.50;;;18.30;48.80;;;;;;5076974;28;20244;-79
2023/04/26 00:13:24;;;;;;;2.47;2.30;;;18.30;48.90;;;;;;5076922;28;20198;-79
2023/04/26 00:15:51;;;;;;;3.05;2.20;;;18.30;48.90;;;;;;5076735;28;20657;-79
2023/04/26 00:18:18;;;;;;;2.83;2.28;;;18.30;48.90;;;;;;5077038;28;20194;-79
2023/04/26 00:20:45;;;;;;;2.35;2.15;;;18.30;48.90;;;;;;5076654;28;20222;-79
2023/04/26 00:23:12;;;;;;;2.40;2.15;;;18.30;48.90;;;;;;5076788;28;20225;-79
2023/04/26 00:25:41;;;;;;;2.53;2.30;;;18.30;48.90;;;;;;5076525;28;20222;-79
2023/04/26 00:28:08;;;;;;;3.45;2.45;;;18.20;48.80;;;;;;5059833;28;20297;-79
2023/04/26 00:30:36;;;;;;;2.85;2.22;;;18.30;48.90;;;;;;5076963;28;20226;-79
2023/04/26 00:33:03;;;;;;;2.58;2.38;;;18.20;48.80;;;;;;5076944;28;20195;-79
2023/04/26 00:35:30;;;;;;;2.78;2.40;;;18.20;48.80;;;;;;5076103;28;20661;-79
2023/04/26 00:37:57;;;;;;;2.95;2.08;;;18.20;48.80;;;;;;5076229;28;20229;-79
2023/04/26 00:40:24;;;;;;;2.85;2.33;;;18.20;48.80;;;;;;5076134;28;20677;-79
2023/04/26 00:42:58;;;;;;;3.28;2.40;;;18.20;48.80;;;;;;5076881;28;20202;-79
2023/04/26 00:45:25;;;;;;;2.30;2.10;;;18.20;48.80;;;;;;5076037;28;20191;-79
2023/04/26 00:47:53;;;;;;;2.50;2.30;;;18.20;48.80;;;;;;5076022;28;20567;-79
2023/04/26 00:50:20;;;;;;;3.55;2.40;;;18.10;48.70;;;;;;5076079;28;20284;-79
2023/04/26 00:52:47;;;;;;;3.17;2.38;;;18.10;48.70;;;;;;5076435;28;20199;-79
2023/04/26 00:55:15;;;;;;;2.65;2.45;;;18.10;48.70;;;;;;5076057;28;20209;-79
2023/04/26 00:57:42;;;;;;;2.50;2.30;;;18.10;48.70;;;;;;5059608;28;20199;-79
2023/04/26 01:00:11;;;;;;;2.60;2.40;;;18.10;48.70;;;;;;5076567;28;20218;-79
2023/04/26 01:02:38;;;;;;;2.70;2.17;;;18.10;48.70;;;;;;5088112;28;20179;-79
2023/04/26 01:05:07;;;;;;;2.38;2.17;;;18.00;48.60;;;;;;5075920;28;20219;-79
2023/04/26 01:07:35;;;;;;;2.00;1.90;;;18.00;48.60;;;;;;5076533;28;20198;-79
2023/04/26 01:10:03;;;;;;;2.00;1.90;;;18.00;48.60;;;;;;5075750;28;20219;-79
2023/04/26 01:12:31;;;;;;;2.88;2.47;;;18.00;48.60;;;;;;5059502;28;20205;-79
2023/04/26 01:14:58;;;;;;;3.88;2.17;;;18.00;48.60;;;;;;5075401;28;20191;-79
2023/04/26 01:17:27;;;;;;;4.30;2.35;;;18.00;48.60;;;;;;5058540;28;20224;-79
2023/04/26 01:19:56;;;;;;;3.55;2.30;;;18.00;48.70;;;;;;5075135;28;20199;-78
2023/04/26 01:22:24;;;;;;;2.60;2.40;;;17.90;48.60;;;;;;5075241;28;20198;-78
2023/04/26 01:24:52;;;;;;;3.38;2.25;;;17.90;48.70;;;;;;5074937;28;20211;-78
2023/04/26 01:27:20;;;;;;;3.03;2.20;;;17.90;48.60;;;;;;5075029;28;20205;-79
2023/04/26 01:29:47;;;;;;;2.47;2.22;;;17.90;48.70;;;;;;5075295;28;20190;-79
2023/04/26 01:32:15;;;;;;;2.60;2.38;;;17.90;48.60;;;;;;5058357;28;20195;-79
2023/04/26 01:34:42;;;;;;;2.30;2.20;;;17.90;48.70;;;;;;5075106;28;20218;-79
2023/04/26 01:37:10;;;;;;;3.15;2.47;;;17.90;48.80;;;;;;5074925;28;20289;-79
2023/04/26 01:39:37;;;;;;;2.33;2.10;;;17.90;48.80;;;;;;5058528;28;20202;-79
2023/04/26 01:42:06;;;;;;;2.40;2.20;;;17.80;48.70;;;;;;5074928;28;20215;-79
2023/04/26 01:44:33;;;;;;;2.42;2.33;;;17.80;48.80;;;;;;5074848;28;20705;-79
2023/04/26 01:47:01;;;;;;;2.97;2.08;;;17.80;48.70;;;;;;5075029;28;20195;-79
2023/04/26 01:49:28;;;;;;;2.83;2.22;;;17.80;48.70;;;;;;5075031;28;20199;-79
2023/04/26 01:51:55;;;;;;;2.38;2.15;;;17.70;48.70;;;;;;5074764;28;20215;-79
2023/04/26 01:54:24;;;;;;;3.03;2.38;;;17.80;48.80;;;;;;5058330;28;20202;-79
2023/04/26 01:56:53;;;;;;;2.83;2.30;;;17.70;48.70;;;;;;5075388;28;20282;-79
2023/04/26 01:59:21;;;;;;;2.10;2.00;;;17.80;48.70;;;;;;5074424;28;20201;-79
2023/04/26 02:01:49;;;;;;;3.28;2.20;;;17.80;48.70;;;;;;5075515;28;20215;-79
2023/04/26 02:04:16;;;;;;;2.40;2.08;;;17.80;48.70;;;;;;5074315;28;20215;-79
2023/04/26 02:06:43;;;;;;;2.80;2.20;;;17.80;48.70;;;;;;5074287;28;20202;-79
2023/04/26 02:09:10;;;;;;;2.63;2.42;;;17.70;48.60;;;;;;5074214;28;20657;-79
2023/04/26 02:11:40;;;;;;;2.30;2.03;;;17.70;48.60;;;;;;5074814;28;20214;-79
2023/04/26 02:14:07;;;;;;;2.53;2.30;;;17.70;48.60;;;;;;5074160;28;20688;-79
2023/04/26 02:16:35;;;;;;;2.10;1.92;;;17.70;48.60;;;;;;5074151;28;20198;-79
2023/04/26 02:19:02;;;;;;;3.35;2.20;;;17.70;48.60;;;;;;5074144;28;20551;-79
2023/04/26 02:21:29;;;;;;;2.47;2.00;;;17.70;48.70;;;;;;5074044;28;20226;-79
2023/04/26 02:23:56;;;;;;;2.45;1.85;;;17.60;48.60;;;;;;5073854;28;20218;-79
2023/04/26 02:26:23;;;;;;;2.33;2.03;;;17.60;48.60;;;;;;5074387;28;20218;-79
2023/04/26 02:28:50;;;;;;;2.15;2.00;;;17.60;48.70;;;;;;5074099;28;20215;-79
2023/04/26 02:31:17;;;;;;;2.42;2.10;;;17.60;48.70;;;;;;5073813;28;20206;-79
2023/04/26 02:33:46;;;;;;;2.65;1.80;;;17.50;48.70;;;;;;5073785;28;20195;-79
2023/04/26 02:36:13;;;;;;;2.10;2.00;;;17.50;48.70;;;;;;5073833;28;20206;-79
2023/04/26 02:38:40;;;;;;;2.40;2.20;;;17.50;48.70;;;;;;5074159;28;20198;-78
2023/04/26 02:41:08;;;;;;;2.33;2.05;;;17.50;48.80;;;;;;5073636;28;20219;-78
2023/04/26 02:43:35;;;;;;;3.53;2.30;;;17.50;48.70;;;;;;5073620;28;20251;-78
2023/04/26 02:46:02;;;;;;;2.90;2.17;;;17.50;48.70;;;;;;5073389;28;20669;-78
2023/04/26 02:48:30;;;;;;;2.38;2.17;;;17.50;48.90;;;;;;5074466;28;20202;-78
2023/04/26 02:50:59;;;;;;;2.58;2.13;;;17.40;48.80;;;;;;5073837;28;20253;-79
2023/04/26 02:53:26;;;;;;;2.58;2.38;;;17.40;48.80;;;;;;5073192;28;20202;-79
2023/04/26 02:55:55;;;;;;;2.97;2.25;;;17.40;48.80;;;;;;5074536;28;20182;-79
2023/04/26 02:58:22;;;;;;;3.00;2.05;;;17.40;48.80;;;;;;5073150;28;20202;-79
2023/04/26 03:00:49;;;;;;;2.40;2.10;;;17.40;48.80;;;;;;5073259;28;20215;-79
2023/04/26 03:03:17;;;;;;;3.55;2.10;;;17.40;48.90;;;;;;5073960;28;20198;-79
2023/04/26 03:05:45;;;;;;;2.67;1.95;;;17.40;48.90;;;;;;5073074;28;20218;-79
2023/04/26 03:08:14;;;;;;;2.20;2.00;;;17.40;48.80;;;;;;5073194;28;20661;-78
2023/04/26 03:10:41;;;;;;;2.10;1.98;;;17.40;48.70;;;;;;5073353;28;20214;-78
2023/04/26 03:13:08;;;;;;;3.25;2.15;;;17.40;48.70;;;;;;5073186;28;20195;-78
2023/04/26 03:15:35;;;;;;;2.10;1.90;;;17.40;48.70;;;;;;5073161;28;20281;-78
2023/04/26 03:18:03;;;;;;;3.72;2.20;;;17.40;48.80;;;;;;5072979;28;20195;-78
2023/04/26 03:20:30;;;;;;;2.42;2.20;;;17.40;48.90;;;;;;5073024;28;20688;-79
2023/04/26 03:22:57;;;;;;;2.25;2.05;;;17.40;48.80;;;;;;5073284;28;20195;-79
2023/04/26 03:25:25;;;;;;;4.03;1.98;;;17.40;48.70;;;;;;5072718;28;20278;-79
2023/04/26 03:27:52;;;;;;;2.85;2.15;;;17.40;48.70;;;;;;5056129;28;20208;-79
2023/04/26 03:30:20;;;;;;;2.97;2.33;;;17.40;48.80;;;;;;5072706;28;20705;-79
2023/04/26 03:32:47;;;;;;;2.72;2.33;;;17.40;48.70;;;;;;5072969;28;20194;-79
2023/04/26 03:35:14;;;;;;;2.25;2.03;;;17.40;48.60;;;;;;5072681;28;20197;-79
2023/04/26 03:37:42;;;;;;;1.98;1.88;;;17.40;48.70;;;;;;5073961;28;20195;-79
2023/04/26 03:40:12;;;;;;;2.25;2.05;;;17.40;48.60;;;;;;5072743;28;20211;-79
2023/04/26 03:42:41;;;;;;;2.40;2.08;;;17.50;48.60;;;;;;5073083;28;20202;-79
2023/04/26 03:45:09;;;;;;;2.83;2.13;;;17.40;48.40;;;;;;5073067;28;20218;-79
2023/04/26 03:47:37;;;;;;;2.28;2.08;;;17.50;48.50;;;;;;5056089;28;20195;-79
2023/04/26 03:50:05;;;;;;;2.20;2.00;;;17.50;48.30;;;;;;5072704;28;20583;-79
2023/04/26 03:52:32;;;;;;;2.20;2.00;;;17.50;48.30;;;;;;5072703;28;20214;-79
2023/04/26 03:54:59;;;;;;;1.90;1.80;;;17.50;48.30;;;;;;5072692;28;20248;-78
2023/04/26 03:57:28;;;;;;;1.98;1.80;;;17.50;48.20;;;;;;5073939;28;20290;-79
2023/04/26 03:59:57;;;;;;;2.25;2.05;;;17.50;48.20;;;;;;5056774;28;20548;-79
2023/04/26 04:02:24;;;;;;;2.88;2.10;;;17.50;48.20;;;;;;5073000;28;20294;-79
2023/04/26 04:04:52;;;;;;;2.20;2.00;;;17.50;48.70;;;;;;5073054;28;20704;-79
2023/04/26 04:07:20;;;;;;;2.30;2.10;;;17.50;48.10;;;;;;5073778;28;20198;-79
2023/04/26 04:09:47;;;;;;;2.30;2.10;;;17.50;48.00;;;;;;5072671;28;20649;-79
2023/04/26 04:12:14;;;;;;;3.45;2.40;;;17.50;48.10;;;;;;5072868;28;20252;-79
2023/04/26 04:14:42;;;;;;;2.25;1.98;;;17.50;47.90;;;;;;5056282;28;20200;-79
2023/04/26 04:17:11;;;;;;;2.40;2.20;;;17.50;47.80;;;;;;5072819;28;20301;-79
2023/04/26 04:19:39;;;;;;;2.50;2.30;;;17.50;47.90;;;;;;5072875;28;20198;-79
2023/04/26 04:22:06;;;;;;;2.42;2.22;;;17.50;48.00;;;;;;5072981;28;20190;-79
2023/04/26 04:24:34;;;;;;;2.80;2.35;;;17.50;47.90;;;;;;5056828;28;20217;-79
2023/04/26 04:27:02;;;;;;;2.50;2.30;;;17.50;48.00;;;;;;5056427;28;20233;-80
2023/04/26 04:29:29;;;;;;;2.78;2.00;;;17.40;47.90;;;;;;5073955;28;20248;-80
2023/04/26 04:31:56;;;;;;;2.33;2.13;;;17.50;48.00;;;;;;5072807;28;20603;-80
2023/04/26 04:34:26;;;;;;;3.05;2.35;;;17.40;48.00;;;;;;5072833;28;20616;-80
2023/04/26 04:36:53;;;;;;;2.38;2.17;;;17.40;48.00;;;;;;5072257;28;20194;-79
2023/04/26 04:39:20;;;;;;;2.83;2.63;;;17.50;48.00;;;;;;5072553;28;20285;-79
2023/04/26 04:41:47;;;;;;;2.63;2.35;;;17.40;48.00;;;;;;5055641;28;20218;-79
2023/04/26 04:44:17;;;;;;;3.95;2.58;;;17.40;48.10;;;;;;5072060;28;20195;-80
2023/04/26 04:46:44;;;;;;;3.33;2.42;;;17.50;48.20;;;;;;5075461;28;20194;-80
2023/04/26 04:49:12;;;;;;;2.70;2.50;;;17.50;48.00;;;;;;5077051;28;20201;-79
2023/04/26 04:51:40;;;;;;;3.42;2.20;;;17.60;48.30;;;;;;5075956;28;20244;-80
2023/04/26 04:54:11;;;;;;;2.90;2.45;;;17.60;48.30;;;;;;5076419;28;20230;-80
2023/04/26 04:56:38;;;;;;;2.70;2.50;;;17.60;48.30;;;;;;5076316;28;20198;-80
2023/04/26 04:59:06;;;;;;;2.50;2.30;;;17.60;48.30;;;;;;5059792;28;20205;-80
2023/04/26 05:01:33;;;;;;;2.67;2.10;;;17.60;48.30;;;;;;5076414;28;20215;-80
2023/04/26 05:04:05;;;;;;;2.80;2.60;;;17.70;48.20;;;;;;5076678;28;20199;-80
2023/04/26 05:06:33;;;;;;;3.03;2.53;;;17.70;48.40;;;;;;5078321;28;20215;-81
2023/04/26 05:09:04;;;;;;;2.88;2.63;;;17.80;48.40;;;;;;5078594;28;20549;-81
2023/04/26 05:11:32;;;;;;;3.60;2.65;;;17.80;48.00;;;;;;5080091;28;20225;-80
2023/04/26 05:14:00;;;;;;;4.05;2.33;;;17.90;47.90;;;;;;5078998;28;20230;-80
2023/04/26 05:16:27;;;;;;;2.35;2.15;;;17.90;48.30;;;;;;5079532;28;20195;-80
2023/04/26 05:18:57;;;;;;;4.22;2.67;;;18.00;48.20;;;;;;5079695;28;20324;-82
2023/04/26 05:21:27;;;;;;;2.88;2.67;;;18.00;48.30;;;;;;5079538;28;20633;-82
2023/04/26 05:23:55;;;;;;;4.80;2.58;;;18.10;48.20;;;;;;5076790;28;20199;-81
2023/04/26 05:26:24;;;;;;;3.00;2.55;;;18.20;48.40;;;;;;5079059;28;20207;-82
2023/04/26 05:28:56;;;;;;;3.47;2.40;;;18.30;48.60;;;;;;5061697;28;20616;-81
2023/04/26 05:31:24;;;;;;;4.05;2.40;;;18.50;48.10;;;;;;5078362;28;20305;-81
2023/04/26 05:34:23;;;;;;;2.70;2.50;;;18.60;47.80;;;;;;5078550;28;20201;-81
2023/04/26 05:36:55;;;;;;;2.58;2.38;;;18.60;47.40;;;;;;5077278;28;20209;-82
2023/04/26 05:39:22;;;;;;;2.63;2.42;;;18.70;47.50;;;;;;5082707;28;20202;-81
2023/04/26 05:41:52;;;;;;;3.05;2.55;;;18.80;47.40;;;;;;5084408;28;20242;-83
2023/04/26 05:44:26;;;;;;;2.88;2.67;;;18.90;47.20;;;;;;5084218;28;20194;-81
2023/04/26 05:46:53;;;;;;;3.33;2.65;;;19.10;46.80;;;;;;5083115;28;20273;-81
2023/04/26 05:49:20;;;;;;;2.65;2.45;;;19.20;46.60;;;;;;5083886;28;20213;-80
2023/04/26 05:51:48;;;;;;;5.60;2.47;;;19.30;46.10;;;;;;5083227;28;20222;-81
2023/04/26 05:54:15;;;;;;;2.80;2.50;;;19.40;46.00;;;;;;5066878;28;20198;-82
2023/04/26 05:56:43;;;;;;;3.08;2.78;;;19.50;45.90;;;;;;5066123;28;20324;-82
2023/04/26 05:59:14;;;;;;;3.35;2.85;;;19.60;45.70;;;;;;5080527;28;20563;-81
2023/04/26 06:01:41;;;;;;;3.40;2.88;;;19.70;45.50;;;;;;5079129;28;20314;-82
2023/04/26 06:04:08;;;;;;;3.00;2.70;;;20.00;45.50;;;;;;5077190;28;20751;-82
2023/04/26 06:06:46;;;;;;;4.22;2.78;;;20.10;45.10;;;;;;5076640;28;20272;-82
2023/04/26 06:09:14;;;;;;;3.05;2.75;;;20.30;44.90;;;;;;5075150;28;20282;-82
2023/04/26 06:11:42;;;;;;;3.38;2.60;;;20.40;44.70;;;;;;5062311;28;20210;-82
2023/04/26 06:14:09;;;;;;;2.97;2.78;;;20.60;44.60;;;;;;5078517;28;20233;-82
2023/04/26 06:16:37;;;;;;;4.35;3.13;;;20.70;44.30;;;;;;5060163;28;20564;-81
2023/04/26 06:19:06;;;;;;;4.30;3.25;;;20.80;44.10;;;;;;5074373;28;20195;-82
2023/04/26 06:21:33;;;;;;;4.15;3.55;;;20.90;44.00;;;;;;5058435;28;20242;-82
2023/04/26 06:24:00;;;;;;;3.83;2.83;;;21.00;44.30;;;;;;5058756;28;20226;-82
2023/04/26 06:26:29;;;;;;;5.55;3.72;;;21.10;43.60;;;;;;5075147;28;20218;-82
2023/04/26 06:28:56;;;;;;;4.45;3.95;;;21.20;43.40;;;;;;5074851;28;20203;-82
2023/04/26 06:31:24;;;;;;;4.95;3.40;;;21.40;43.30;;;;;;5075025;28;20257;-82
2023/04/26 06:33:52;;;;;;;4.10;3.70;;;21.50;43.10;;;;;;5074359;28;20665;-82
2023/04/26 06:36:20;;;;;;;4.68;3.55;;;21.60;42.80;;;;;;5074331;28;20273;-81
2023/04/26 06:38:47;;;;;;;5.70;3.67;;;21.70;42.60;;;;;;5057935;28;20585;-82
2023/04/26 06:41:14;;;;;;;4.05;3.35;;;21.70;42.60;;;;;;5074519;28;20306;-82
2023/04/26 06:43:41;;;;;;;4.78;3.95;;;21.80;42.40;;;;;;5073974;28;20566;-82
2023/04/26 06:46:19;;;;;;;5.05;3.70;;;21.90;42.40;;;;;;5074269;28;20210;-82
2023/04/26 06:48:55;;;;;;;4.85;3.80;;;22.00;42.20;;;;;;5074596;28;20218;-82
2023/04/26 06:51:22;;;;;;;5.45;3.15;;;22.00;41.90;;;;;;5074173;28;20218;-82
2023/04/26 06:53:49;;;;;;;3.72;3.17;;;22.20;41.80;;;;;;5074216;28;20198;-82
2023/04/26 06:56:16;;;;;;;3.28;2.88;;;22.30;41.60;;;;;;5073941;28;20244;-81
2023/04/26 06:58:58;;;;;;;3.78;2.55;;;22.40;41.40;;;;;;5074654;28;20199;-82
2023/04/26 07:01:25;;;;;;;2.85;2.40;;;22.40;41.30;;;;;;5073902;28;20221;-82
2023/04/26 07:03:54;;;;;;;3.10;2.30;;;22.40;41.20;;;;;;5074063;28;20286;-80
2023/04/26 07:06:21;;;;;;;4.60;3.03;;;22.40;41.30;;;;;;5073814;28;20254;-82
2023/04/26 07:08:48;;;;;;;2.85;2.47;;;22.50;41.40;;;;;;5074278;28;20199;-82
2023/04/26 07:11:15;;;;;;;2.53;2.33;;;22.50;41.20;;;;;;5075692;28;20287;-82
2023/04/26 07:13:42;;;;;;;1.90;1.80;;;22.50;41.20;;;;;;5075709;28;20206;-82
2023/04/26 07:16:09;;;;;;;2.40;2.20;;;22.60;41.00;;;;;;5073383;28;20199;-81
2023/04/26 07:18:37;;;;;;;2.72;2.05;;;22.60;41.00;;;;;;5040565;28;20285;-81
2023/04/26 07:21:05;;;;;;;2.10;1.90;;;22.70;40.80;;;;;;5073189;28;20693;-82
2023/04/26 07:23:32;;;;;;;3.20;1.95;;;22.80;40.60;;;;;;5073385;28;20242;-82
2023/04/26 07:26:00;;;;;;;1.80;1.70;;;22.90;40.30;;;;;;5073108;28;20219;-82
2023/04/26 07:28:27;;;;;;;2.15;1.92;;;23.00;40.20;;;;;;5073441;28;20213;-82
2023/04/26 07:30:54;;;;;;;2.00;1.80;;;23.10;40.10;;;;;;5073545;28;20223;-81
2023/04/26 07:33:21;;;;;;;1.98;1.67;;;23.20;39.90;;;;;;5073736;28;20198;-82
2023/04/26 07:35:54;;;;;;;1.92;1.75;;;23.20;39.80;;;;;;5073596;28;20649;-82
2023/04/26 07:38:22;;;;;;;2.20;2.00;;;23.20;39.80;;;;;;5073258;28;20195;-82
2023/04/26 07:40:50;;;;;;;2.63;1.92;;;23.20;40.00;;;;;;5073497;28;20230;-82
2023/04/26 07:43:17;;;;;;;2.33;1.85;;;23.10;40.00;;;;;;5073434;28;20323;-81
2023/04/26 07:45:45;;;;;;;2.10;1.90;;;23.00;40.20;;;;;;5073640;28;20222;-82
2023/04/26 07:48:12;;;;;;;2.38;1.90;;;22.90;40.50;;;;;;5073300;28;20203;-82
2023/04/26 07:50:39;;;;;;;2.35;1.95;;;22.80;40.60;;;;;;5073639;28;20276;-82
2023/04/26 07:53:06;;;;;;;1.85;1.50;;;22.70;40.70;;;;;;5072819;28;20195;-82
2023/04/26 07:55:36;;;;;;;1.88;1.52;;;22.60;40.80;;;;;;5072525;28;20602;-82
2023/04/26 07:58:03;;;;;;;1.80;1.70;;;22.50;41.00;;;;;;5072755;28;20198;-82
2023/04/26 08:00:30;;;;;;;2.05;1.90;;;22.30;41.00;;;;;;5073433;28;20317;-82
2023/04/26 08:02:58;;;;;;;1.83;1.63;;;22.30;41.20;;;;;;5073877;28;20199;-82
2023/04/26 08:05:26;;;;;;;2.45;2.10;;;22.20;41.30;;;;;;5072598;28;20281;-82
2023/04/26 08:07:53;;;;;;;1.90;1.67;;;22.20;41.50;;;;;;5074826;28;20194;-81
2023/04/26 08:10:20;;;;;;;2.30;1.80;;;22.10;42.00;;;;;;5072855;28;20215;-82
2023/04/26 08:12:49;;;;;;;1.95;1.77;;;22.10;41.40;;;;;;5072852;28;20198;-82
2023/04/26 08:15:17;;;;;;;2.15;1.80;;;22.10;41.90;;;;;;5073584;28;20195;-82
2023/04/26 08:17:44;;;;;;;2.10;1.90;;;22.20;41.30;;;;;;5072826;28;20549;-81
2023/04/26 08:20:11;;;;;;;1.85;1.75;;;22.30;41.20;;;;;;5073412;28;20215;-81
2023/04/26 08:22:38;;;;;;;2.53;1.77;;;22.30;41.00;;;;;;5076908;28;20203;-81
2023/04/26 08:25:06;;;;;;;2.47;1.90;;;22.50;40.80;;;;;;5076802;28;20248;-82
2023/04/26 08:27:34;;;;;;;2.13;1.92;;;22.70;40.40;;;;;;5076469;28;20245;-82
2023/04/26 08:30:03;;;;;;;1.65;1.50;;;22.90;40.10;;;;;;5076491;28;20272;-82
2023/04/26 08:32:32;;;;;;;1.60;1.50;;;23.10;39.80;;;;;;5077966;28;20205;-82
2023/04/26 08:35:00;;;;;;;1.70;1.60;;;23.20;39.60;;;;;;5076864;28;20198;-82
2023/04/26 08:37:27;;;;;;;2.42;1.80;;;23.40;39.40;;;;;;5077313;28;20230;-82
2023/04/26 08:39:54;;;;;;;2.47;1.90;;;23.50;39.10;;;;;;5076887;28;20195;-82
2023/04/26 08:42:21;;;;;;;2.10;1.95;;;23.50;39.00;;;;;;5077613;28;20195;-82
2023/04/26 08:44:48;;;;;;;1.77;1.55;;;23.50;39.00;;;;;;5076616;28;20221;-82
2023/04/26 08:47:18;;;;;;;2.05;1.70;;;23.40;39.00;;;;;;5076717;28;20559;-82
2023/04/26 08:49:49;;;;;;;1.98;1.80;;;23.30;39.30;;;;;;5076633;28;20191;-82
2023/04/26 08:52:21;;;;;;;1.95;1.75;;;23.30;39.40;;;;;;5076493;28;20194;-81
2023/04/26 08:54:50;;;;;;;2.97;1.60;;;23.10;39.60;;;;;;5078749;28;20212;-81
2023/04/26 08:57:17;;;;;;;1.77;1.67;;;23.00;39.80;;;;;;5078484;28;20198;-82
2023/04/26 08:59:45;;;;;;;1.98;1.67;;;22.90;40.00;;;;;;5076267;28;20199;-82
2023/04/26 09:02:14;;;;;;;1.98;1.65;;;22.80;40.10;;;;;;5076876;28;20203;-81
2023/04/26 09:04:42;;;;;;;1.85;1.70;;;22.70;40.10;;;;;;5076447;28;20280;-81
2023/04/26 09:07:09;;;;;;;1.67;1.58;;;22.60;40.20;;;;;;5077073;28;20242;-82
2023/04/26 09:09:41;;;;;;;1.70;1.60;;;22.60;40.40;;;;;;5076322;28;20637;-82
2023/04/26 09:12:08;;;;;;;2.13;1.77;;;22.50;40.40;;;;;;5076340;28;20283;-82
2023/04/26 09:14:36;;;;;;;1.70;1.60;;;22.50;40.50;;;;;;5076973;28;20199;-82
2023/04/26 09:17:03;;;;;;;1.80;1.70;;;22.50;40.60;;;;;;5077866;28;20214;-82
2023/04/26 09:19:35;;;;;;;2.42;1.88;;;22.40;40.50;;;;;;5078018;28;20209;-81
2023/04/26 09:22:05;;;;;;;2.35;1.60;;;22.40;40.60;;;;;;5078773;28;20219;-82
2023/04/26 09:24:46;;;;;;;1.77;1.52;;;22.40;40.60;;;;;;5080570;28;20202;-82
2023/04/26 09:27:14;;;;;;;1.88;1.65;;;22.40;40.50;;;;;;5078523;28;20210;-82
2023/04/26 09:29:41;;;;;;;1.98;1.77;;;22.40;40.50;;;;;;5076007;28;20198;-83
2023/04/26 09:32:09;;;;;;;2.08;1.60;;;22.40;40.50;;;;;;5076226;28;20206;-82
2023/04/26 09:34:44;;;;;;;2.00;1.80;;;22.40;40.50;;;;;;5059973;28;20199;-82
2023/04/26 09:37:13;;;;;;;1.80;1.70;;;22.40;40.40;;;;;;5075952;28;20225;-81
2023/04/26 09:39:41;;;;;;;1.52;1.42;;;22.40;40.40;;;;;;5075645;28;20203;-83
2023/04/26 09:42:10;;;;;;;2.53;1.80;;;22.40;40.40;;;;;;5076207;28;20641;-81
2023/04/26 09:44:37;;;;;;;2.08;1.77;;;22.40;40.40;;;;;;5075858;28;20203;-82
2023/04/26 09:47:05;;;;;;;1.80;1.70;;;22.40;40.40;;;;;;5075753;28;20264;-82
2023/04/26 09:49:33;;;;;;;2.22;2.03;;;22.40;40.40;;;;;;5076289;28;20206;-82
2023/04/26 09:52:05;;;;;;;2.05;1.80;;;22.30;40.30;;;;;;5075888;28;20616;-82
2023/04/26 09:54:41;;;;;;;1.80;1.70;;;22.40;40.40;;;;;;5076150;28;20191;-81
2023/04/26 09:57:07;;;;;;;2.53;1.90;;;22.30;40.30;;;;;;5075775;28;20224;-82
2023/04/26 09:59:43;;;;;;;1.63;1.40;;;22.40;40.40;;;;;;5075544;28;20248;-82
2023/04/26 10:02:13;;;;;;;2.08;1.52;;;22.30;40.20;;;;;;5075075;28;20229;-82
2023/04/26 10:04:41;;;;;;;2.45;1.63;;;22.40;40.30;;;;;;5075899;28;20207;-81
2023/04/26 10:07:09;;;;;;;1.83;1.58;;;22.30;40.20;;;;;;5074959;28;20231;-82
2023/04/26 10:09:36;;;;;;;2.67;1.80;;;22.30;40.20;;;;;;5075933;28;20195;-81
2023/04/26 10:12:05;;;;;;;2.00;1.80;;;22.30;40.20;;;;;;5076760;28;20219;-81
2023/04/26 10:14:32;;;;;;;1.88;1.55;;;22.30;40.20;;;;;;5075431;28;20198;-81
2023/04/26 10:16:59;;;;;;;1.85;1.70;;;22.30;40.30;;;;;;5075081;28;20191;-82
2023/04/26 10:19:26;;;;;;;1.70;1.60;;;22.30;40.20;;;;;;5076562;28;20191;-82
2023/04/26 10:21:53;;;;;;;1.88;1.73;;;22.30;40.30;;;;;;5076343;28;20214;-82
2023/04/26 10:24:21;;;;;;;2.08;1.88;;;22.30;40.30;;;;;;5060854;28;20203;-82
2023/04/26 10:26:50;;;;;;;3.38;1.85;;;22.40;40.40;;;;;;5076768;28;20224;-82
2023/04/26 10:29:19;;;;;;;1.63;1.45;;;22.40;40.30;;;;;;5078004;28;20202;-82
2023/04/26 10:32:05;;;;;;;1.75;1.65;;;22.40;40.20;;;;;;5075821;28;20221;-82
2023/04/26 10:34:32;;;;;;;2.13;1.80;;;22.40;40.20;;;;;;5076550;28;20198;-82
2023/04/26 10:37:10;;;;;;;1.95;1.50;;;22.50;40.20;;;;;;5076235;28;20190;-82
2023/04/26 10:39:37;;;;;;;2.50;1.70;;;22.50;40.20;;;;;;5076586;28;20241;-82
2023/04/26 10:42:23;;;;;;;1.88;1.77;;;22.60;40.10;;;;;;5075263;28;20677;-82
2023/04/26 10:44:51;;;;;;;1.50;1.40;;;22.60;40.00;;;;;;5075413;28;20620;-82
2023/04/26 10:47:29;;;;;;;2.67;1.80;;;22.60;40.00;;;;;;5074801;28;20219;-82
2023/04/26 10:50:04;;;;;;;2.85;1.95;;;22.60;40.00;;;;;;5074518;28;20651;-82
2023/04/26 10:52:31;;;;;;;1.60;1.50;;;22.60;40.00;;;;;;5074471;28;20201;-82
2023/04/26 10:54:58;;;;;;;1.88;1.73;;;22.60;40.00;;;;;;5074827;28;20220;-82
2023/04/26 10:57:47;;;;;;;1.90;1.67;;;22.60;39.90;;;;;;5077585;28;20190;-82
2023/04/26 11:00:28;;;;;;;1.95;1.60;;;22.50;39.90;;;;;;5086855;28;20321;-82
2023/04/26 11:03:00;;;;;;;2.35;1.73;;;22.50;39.90;;;;;;5097279;28;20195;-82
2023/04/26 11:05:48;;;;;;;1.70;1.58;;;22.50;39.90;;;;;;5098260;28;20182;-82
2023/04/26 11:08:16;;;;;;;1.63;1.52;;;22.50;39.90;;;;;;5098163;28;20222;-82
2023/04/26 11:10:45;;;;;;;1.75;1.60;;;22.40;39.90;;;;;;5097732;28;20211;-82
2023/04/26 11:13:12;;;;;;;1.98;1.80;;;22.50;40.00;;;;;;5098324;28;20166;-82
2023/04/26 11:15:41;;;;;;;1.75;1.60;;;22.50;39.90;;;;;;5097027;28;20187;-82
2023/04/26 11:18:07;;;;;;;1.83;1.70;;;22.50;39.90;;;;;;5094997;28;20719;-82
2023/04/26 11:20:35;;;;;;;1.50;1.40;;;22.50;40.00;;;;;;5076486;28;20268;-82
2023/04/26 11:23:03;;;;;;;2.13;1.65;;;22.50;40.00;;;;;;5075907;28;20237;-82
2023/04/26 11:25:30;;;;;;;1.70;1.58;;;22.50;40.00;;;;;;5075213;28;20207;-82
2023/04/26 11:27:59;;;;;;;2.03;1.67;;;22.50;40.00;;;;;;5075475;28;20222;-82
2023/04/26 11:30:28;;;;;;;1.95;1.77;;;22.40;39.70;;;;;;5074433;28;20218;-82
2023/04/26 11:32:58;;;;;;;2.00;1.80;;;22.40;39.80;;;;;;5074271;28;20293;-82
2023/04/26 11:35:25;;;;;;;2.33;1.80;;;22.40;39.80;;;;;;5074646;28;20209;-82
2023/04/26 11:37:53;;;;;;;2.03;1.70;;;22.50;39.80;;;;;;5074418;28;20657;-82
2023/04/26 11:40:20;;;;;;;2.53;1.77;;;22.40;39.80;;;;;;5057912;28;20245;-82
2023/04/26 11:42:48;;;;;;;1.70;1.60;;;22.40;39.70;;;;;;5057924;28;20195;-82
2023/04/26 11:45:16;;;;;;;1.50;1.40;;;22.50;39.90;;;;;;5074153;28;20198;-82
2023/04/26 11:47:44;;;;;;;2.03;1.70;;;22.40;39.80;;;;;;5073546;28;20210;-82
2023/04/26 11:50:13;;;;;;;2.03;1.83;;;22.50;39.80;;;;;;5073671;28;20218;-82
2023/04/26 11:52:41;;;;;;;1.88;1.63;;;22.50;39.60;;;;;;5073453;28;20281;-82
2023/04/26 11:55:09;;;;;;;2.72;1.80;;;22.50;39.70;;;;;;5056059;28;20202;-82
2023/04/26 11:57:36;;;;;;;1.75;1.65;;;22.50;39.60;;;;;;5073366;28;20195;-82
2023/04/26 12:00:13;;;;;;;1.92;1.83;;;22.50;39.70;;;;;;5074220;28;20276;-82
2023/04/26 12:02:43;;;;;;;2.10;1.85;;;22.50;39.70;;;;;;5073117;28;20759;-82
2023/04/26 12:05:20;;;;;;;1.70;1.60;;;22.50;39.70;;;;;;5073267;28;20744;-82
2023/04/26 12:07:50;;;;;;;2.13;1.63;;;22.60;39.60;;;;;;5073060;28;20297;-82
2023/04/26 12:10:17;;;;;;;1.95;1.70;;;22.50;39.70;;;;;;5073848;28;20222;-82
2023/04/26 12:12:47;;;;;;;1.80;1.70;;;22.50;39.50;;;;;;5073067;28;20199;-82
2023/04/26 12:15:14;;;;;;;1.90;1.80;;;22.50;39.70;;;;;;5073842;28;20195;-82
2023/04/26 12:17:52;;;;;;;2.10;1.80;;;22.50;39.70;;;;;;5073241;28;20190;-82
2023/04/26 12:20:26;;;;;;;2.58;1.77;;;22.50;39.70;;;;;;5072878;28;20211;-82
2023/04/26 12:23:01;;;;;;;3.58;1.83;;;22.50;39.10;;;;;;5072875;28;20652;-81
2023/04/26 12:25:28;;;;;;;2.90;2.00;;;22.50;39.30;;;;;;5072949;28;20218;-81
2023/04/26 12:27:55;;;;;;;2.00;1.70;;;22.40;39.60;;;;;;5073952;28;20218;-81
2023/04/26 12:30:23;;;;;;;2.90;1.70;;;22.40;39.60;;;;;;5072915;28;20670;-81
2023/04/26 12:33:01;;;;;;;2.08;1.63;;;22.40;39.80;;;;;;5057662;28;20274;-81
2023/04/26 12:35:30;;;;;;;5.05;1.90;;;22.40;40.20;;;;;;5057962;28;20222;-81
2023/04/26 12:37:59;;;;;;;2.80;1.83;;;22.40;39.70;;;;;;5074814;28;20217;-81
2023/04/26 12:40:26;;;;;;;2.35;1.70;;;22.40;39.60;;;;;;5074504;28;20732;-81
2023/04/26 12:42:54;;;;;;;3.10;1.83;;;22.40;39.70;;;;;;5074161;28;20615;-81
2023/04/26 12:45:22;;;;;;;3.63;1.92;;;22.40;39.70;;;;;;5073354;28;20669;-81
2023/04/26 12:47:49;;;;;;;1.88;1.77;;;22.40;39.50;;;;;;5056706;28;20258;-81
2023/04/26 12:50:16;;;;;;;3.05;2.13;;;22.40;39.60;;;;;;5073957;28;20219;-82
2023/04/26 12:52:45;;;;;;;2.58;1.73;;;22.30;39.90;;;;;;5073485;28;20285;-81
2023/04/26 12:55:13;;;;;;;4.05;2.03;;;22.40;40.40;;;;;;5072437;28;20198;-81